createdAt,value
2018-07-23T00:01:36.280Z,4.43
2018-07-23T00:04:05.172Z,3.83
2018-07-23T00:06:33.968Z,4.63
2018-07-23T00:09:02.885Z,4.77
2018-07-23T00:11:32.160Z,3.60
2018-07-23T00:14:01.012Z,4.50
2018-07-23T00:16:29.779Z,4.17
2018-07-23T00:18:58.644Z,3.90
2018-07-23T00:21:26.979Z,4.27
2018-07-23T00:23:55.884Z,4.03
2018-07-23T00:26:24.617Z,5.40
2018-07-23T00:28:53.866Z,5.70
2018-07-23T00:31:22.606Z,4.20
2018-07-23T00:33:51.452Z,4.23
2018-07-23T00:36:20.151Z,5.53
2018-07-23T00:38:48.880Z,10.33
2018-07-23T00:41:17.628Z,3.77
2018-07-23T00:43:46.356Z,5.20
2018-07-23T00:46:15.091Z,4.17
2018-07-23T00:48:43.754Z,4.37
2018-07-23T00:51:12.432Z,4.43
2018-07-23T00:53:41.084Z,5.77
2018-07-23T00:56:09.875Z,5.07
2018-07-23T00:58:38.926Z,5.37
2018-07-23T01:01:07.607Z,4.20
2018-07-23T01:03:36.306Z,4.27
2018-07-23T01:06:05.077Z,3.90
2018-07-23T01:08:33.799Z,4.30
2018-07-23T01:11:02.514Z,3.67
2018-07-23T01:13:31.204Z,5.10
2018-07-23T01:15:59.884Z,4.03
2018-07-23T01:18:28.647Z,5.07
2018-07-23T01:20:57.003Z,4.90
2018-07-23T01:23:25.757Z,4.97
2018-07-23T01:25:54.588Z,4.20
2018-07-23T01:28:23.268Z,4.00
2018-07-23T01:30:51.940Z,4.30
2018-07-23T01:33:20.847Z,5.40
2018-07-23T01:35:49.556Z,5.47
2018-07-23T01:38:18.662Z,3.70
2018-07-23T01:40:47.386Z,3.97
2018-07-23T01:43:16.096Z,4.03
2018-07-23T01:45:44.755Z,3.70
2018-07-23T01:48:13.441Z,4.00
2018-07-23T01:50:42.095Z,5.17
2018-07-23T01:53:11.180Z,3.50
2018-07-23T01:55:39.888Z,4.33
2018-07-23T01:58:08.646Z,3.77
2018-07-23T02:00:37.344Z,4.20
2018-07-23T02:03:06.113Z,4.97
2018-07-23T02:05:34.880Z,4.47
2018-07-23T02:08:05.376Z,5.37
2018-07-23T02:10:34.131Z,5.23
2018-07-23T02:13:02.816Z,3.40
2018-07-23T02:15:31.516Z,4.10
2018-07-23T02:18:00.259Z,5.77
2018-07-23T02:20:29.008Z,7.13
2018-07-23T02:22:57.695Z,4.23
2018-07-23T02:25:26.467Z,4.63
2018-07-23T02:27:55.448Z,7.73
2018-07-23T02:30:24.132Z,4.40
2018-07-23T02:32:52.865Z,4.40
2018-07-23T02:35:21.526Z,5.43
2018-07-23T02:37:50.265Z,4.60
2018-07-23T02:40:18.960Z,4.53
2018-07-23T02:42:47.763Z,5.90
2018-07-23T02:45:16.476Z,3.97
2018-07-23T02:47:45.180Z,3.70
2018-07-23T02:50:13.892Z,4.20
2018-07-23T02:52:42.608Z,3.90
2018-07-23T02:55:11.348Z,4.73
2018-07-23T02:57:41.911Z,3.97
2018-07-23T03:00:10.885Z,3.97
2018-07-23T03:02:39.667Z,4.63
2018-07-23T03:05:08.425Z,3.77
2018-07-23T03:07:37.196Z,5.00
2018-07-23T03:10:06.356Z,4.33
2018-07-23T03:12:35.160Z,5.47
2018-07-23T03:15:04.120Z,4.23
2018-07-23T03:17:32.829Z,3.93
2018-07-23T03:20:01.506Z,3.97
2018-07-23T03:22:30.268Z,4.13
2018-07-23T03:24:58.933Z,4.63
2018-07-23T03:27:27.669Z,5.33
2018-07-23T03:29:55.979Z,5.60
2018-07-23T03:32:24.698Z,3.90
2018-07-23T03:34:53.351Z,10.70
2018-07-23T03:37:22.076Z,4.13
2018-07-23T03:39:51.029Z,5.80
2018-07-23T03:42:20.128Z,4.30
2018-07-23T03:44:49.112Z,3.97
2018-07-23T03:47:17.807Z,4.10
2018-07-23T03:49:46.556Z,6.10
2018-07-23T03:52:15.429Z,5.20
2018-07-23T03:54:44.111Z,4.23
2018-07-23T03:57:17.045Z,3.77
2018-07-23T03:59:45.856Z,3.73
2018-07-23T04:02:14.876Z,4.30
2018-07-23T04:04:43.692Z,4.23
2018-07-23T04:07:12.302Z,4.37
2018-07-23T04:09:41.039Z,4.00
2018-07-23T04:12:09.719Z,4.90
2018-07-23T04:14:38.332Z,3.80
2018-07-23T04:17:21.971Z,4.70
2018-07-23T04:19:50.667Z,4.17
2018-07-23T04:22:19.384Z,4.03
2018-07-23T04:24:48.027Z,4.63
2018-07-23T04:27:16.684Z,4.60
2018-07-23T04:29:45.304Z,3.83
2018-07-23T04:32:13.945Z,5.63
2018-07-23T04:34:42.610Z,3.90
2018-07-23T04:37:11.261Z,4.60
2018-07-23T04:39:40.169Z,5.53
2018-07-23T04:42:11.544Z,4.93
2018-07-23T04:44:40.264Z,4.53
2018-07-23T04:47:08.948Z,3.60
2018-07-23T04:49:37.606Z,4.23
2018-07-23T04:52:06.272Z,3.90
2018-07-23T04:54:34.904Z,5.03
2018-07-23T04:57:03.569Z,5.60
2018-07-23T04:59:32.241Z,4.00
2018-07-23T05:02:01.133Z,4.07
2018-07-23T05:04:29.760Z,3.97
2018-07-23T05:06:58.481Z,4.40
2018-07-23T05:09:27.126Z,4.73
2018-07-23T05:11:55.792Z,3.97
2018-07-23T05:14:24.417Z,5.20
2018-07-23T05:16:53.069Z,4.87
2018-07-23T05:19:21.726Z,3.80
2018-07-23T05:21:50.376Z,5.43
2018-07-23T05:24:19.033Z,5.20
2018-07-23T05:26:47.735Z,4.07
2018-07-23T05:29:16.407Z,4.47
2018-07-23T05:31:45.080Z,3.90
2018-07-23T05:34:13.766Z,4.37
2018-07-23T05:36:42.412Z,4.30
2018-07-23T05:39:12.016Z,4.47
2018-07-23T05:41:40.821Z,4.40
2018-07-23T05:44:09.520Z,4.00
2018-07-23T05:46:38.223Z,6.77
2018-07-23T05:49:06.932Z,4.57
2018-07-23T05:51:35.556Z,4.33
2018-07-23T05:54:04.280Z,4.10
2018-07-23T05:56:32.916Z,3.67
2018-07-23T05:59:01.613Z,6.37
2018-07-23T06:01:30.268Z,3.70
2018-07-23T06:03:58.941Z,4.47
2018-07-23T06:06:27.643Z,3.63
2018-07-23T06:08:56.291Z,4.67
2018-07-23T06:11:24.928Z,5.50
2018-07-23T06:13:53.555Z,4.20
2018-07-23T06:16:22.224Z,6.47
2018-07-23T06:18:50.866Z,4.00
2018-07-23T06:21:19.511Z,3.87
2018-07-23T06:23:48.196Z,4.03
2018-07-23T06:26:24.194Z,4.10
2018-07-23T06:28:52.933Z,4.40
2018-07-23T06:31:22.579Z,3.90
2018-07-23T06:33:51.286Z,6.83
2018-07-23T06:36:19.917Z,4.53
2018-07-23T06:38:48.671Z,5.43
2018-07-23T06:41:17.336Z,4.50
2018-07-23T06:43:45.973Z,5.00
2018-07-23T06:46:14.661Z,4.17
2018-07-23T06:48:43.303Z,5.90
2018-07-23T06:51:11.941Z,4.20
2018-07-23T06:53:40.591Z,4.40
2018-07-23T06:56:09.211Z,4.85
2018-07-23T06:58:37.511Z,4.35
2018-07-23T07:01:06.180Z,6.00
2018-07-23T07:03:34.853Z,4.37
2018-07-23T07:06:03.492Z,4.60
2018-07-23T07:08:32.200Z,5.42
2018-07-23T07:11:01.000Z,5.60
2018-07-23T07:13:29.687Z,5.20
2018-07-23T07:15:58.328Z,4.78
2018-07-23T07:18:26.977Z,4.75
2018-07-23T07:20:55.652Z,5.05
2018-07-23T07:23:24.315Z,5.37
2018-07-23T07:25:52.994Z,5.05
2018-07-23T07:28:21.627Z,5.47
2018-07-23T07:30:50.313Z,5.33
2018-07-23T07:33:18.957Z,5.33
2018-07-23T07:35:47.721Z,5.65
2018-07-23T07:38:16.418Z,5.78
2018-07-23T07:40:45.088Z,5.42
2018-07-23T07:43:13.759Z,5.40
2018-07-23T07:45:44.015Z,5.40
2018-07-23T07:48:12.696Z,5.35
2018-07-23T07:50:41.356Z,5.45
2018-07-23T07:53:10.088Z,5.60
2018-07-23T07:55:38.812Z,5.62
2018-07-23T07:58:07.451Z,5.12
2018-07-23T08:00:36.100Z,5.83
2018-07-23T08:03:04.768Z,5.90
2018-07-23T08:05:33.434Z,5.80
2018-07-23T08:08:02.124Z,6.05
2018-07-23T08:10:30.780Z,6.42
2018-07-23T08:12:59.396Z,6.03
2018-07-23T08:15:27.692Z,5.67
2018-07-23T08:17:56.387Z,6.12
2018-07-23T08:20:25.068Z,6.62
2018-07-23T08:22:53.722Z,6.30
2018-07-23T08:25:22.527Z,6.75
2018-07-23T08:27:51.181Z,6.37
2018-07-23T08:30:19.856Z,6.13
2018-07-23T08:32:48.480Z,5.87
2018-07-23T08:35:17.099Z,6.33
2018-07-23T08:37:45.763Z,6.80
2018-07-23T08:40:14.385Z,6.50
2018-07-23T08:42:43.052Z,6.63
2018-07-23T08:45:11.685Z,6.33
2018-07-23T08:47:39.940Z,6.63
2018-07-23T08:50:08.597Z,6.43
2018-07-23T08:52:37.265Z,8.13
2018-07-23T08:55:05.934Z,6.43
2018-07-23T08:57:34.541Z,6.83
2018-07-23T09:00:03.388Z,6.17
2018-07-23T09:02:32.024Z,6.77
2018-07-23T09:05:00.640Z,6.53
2018-07-23T09:07:29.360Z,6.43
2018-07-23T09:09:57.993Z,6.53
2018-07-23T09:12:26.732Z,6.23
2018-07-23T09:14:55.472Z,6.17
2018-07-23T09:17:24.100Z,6.20
2018-07-23T09:19:52.728Z,6.67
2018-07-23T09:22:21.384Z,6.50
2018-07-23T09:24:50.348Z,6.90
2018-07-23T09:27:18.635Z,6.33
2018-07-23T09:29:47.335Z,6.30
2018-07-23T09:32:16.445Z,6.73
2018-07-23T09:34:45.659Z,6.63
2018-07-23T09:37:14.352Z,5.77
2018-07-23T09:39:43.365Z,7.47
2018-07-23T09:42:12.069Z,6.33
2018-07-23T09:44:40.399Z,6.60
2018-07-23T09:47:09.023Z,5.87
2018-07-23T09:49:37.735Z,6.50
2018-07-23T09:52:06.469Z,6.50
2018-07-23T09:54:35.125Z,6.43
2018-07-23T09:57:03.839Z,6.37
2018-07-23T09:59:32.582Z,6.53
2018-07-23T10:02:01.232Z,6.43
2018-07-23T10:04:29.923Z,6.80
2018-07-23T10:06:58.552Z,6.07
2018-07-23T10:09:27.538Z,6.03
2018-07-23T10:11:56.248Z,6.40
2018-07-23T10:14:24.936Z,6.25
2018-07-23T10:16:53.573Z,6.33
2018-07-23T10:19:22.188Z,6.60
2018-07-23T10:21:50.840Z,6.40
2018-07-23T10:24:19.478Z,6.33
2018-07-23T10:26:48.092Z,6.40
2018-07-23T10:29:17.189Z,7.17
2018-07-23T10:31:45.881Z,5.65
2018-07-23T10:34:14.620Z,7.17
2018-07-23T10:36:43.327Z,6.05
2018-07-23T10:39:11.956Z,6.20
2018-07-23T10:41:40.645Z,8.10
2018-07-23T10:44:09.452Z,5.60
2018-07-23T10:46:38.080Z,5.50
2018-07-23T10:49:06.843Z,5.67
2018-07-23T10:51:35.509Z,6.17
2018-07-23T10:54:04.353Z,5.37
2018-07-23T10:56:33.010Z,5.75
2018-07-23T10:59:01.713Z,5.65
2018-07-23T11:01:30.345Z,5.80
2018-07-23T11:03:59.520Z,5.80
2018-07-23T11:06:28.160Z,5.60
2018-07-23T11:08:56.836Z,5.70
2018-07-23T11:11:25.488Z,5.70
2018-07-23T11:13:54.336Z,6.65
2018-07-23T11:16:23.056Z,5.80
2018-07-23T11:18:51.692Z,5.70
2018-07-23T11:21:20.328Z,7.90
2018-07-23T11:23:48.961Z,6.20
2018-07-23T11:26:17.634Z,5.75
2018-07-23T11:28:46.284Z,6.30
2018-07-23T11:31:14.929Z,5.40
2018-07-23T11:33:43.538Z,5.78
2018-07-23T11:36:11.837Z,6.25
2018-07-23T11:38:40.482Z,5.65
2018-07-23T11:41:09.141Z,5.83
2018-07-23T11:43:37.920Z,5.90
2018-07-23T11:46:06.600Z,5.20
2018-07-23T11:48:35.223Z,5.60
2018-07-23T11:51:04.542Z,6.15
2018-07-23T11:53:33.204Z,5.47
2018-07-23T11:56:01.881Z,5.45
2018-07-23T11:58:30.503Z,6.08
2018-07-23T12:00:59.184Z,6.65
2018-07-23T12:03:27.896Z,6.00
2018-07-23T12:05:56.516Z,6.08
2018-07-23T12:08:25.221Z,5.58
2018-07-23T12:10:53.883Z,5.42
2018-07-23T12:13:22.532Z,5.47
2018-07-23T12:15:51.203Z,5.97
2018-07-23T12:18:19.864Z,5.58
2018-07-23T12:20:48.500Z,5.58
2018-07-23T12:23:17.167Z,5.47
2018-07-23T12:25:45.821Z,5.28
2018-07-23T12:28:14.536Z,5.20
2018-07-23T12:30:43.180Z,5.03
2018-07-23T12:33:11.805Z,5.35
2018-07-23T12:35:40.420Z,6.62
2018-07-23T12:38:09.041Z,4.97
2018-07-23T12:40:37.674Z,5.83
2018-07-23T12:43:06.330Z,5.05
2018-07-23T12:45:34.999Z,5.25
2018-07-23T12:48:03.696Z,4.60
2018-07-23T12:50:32.348Z,5.85
2018-07-23T12:53:01.020Z,5.15
2018-07-23T12:55:33.457Z,5.12
2018-07-23T12:58:02.119Z,5.50
2018-07-23T13:00:30.780Z,5.78
2018-07-23T13:02:59.475Z,5.28
2018-07-23T13:05:32.450Z,5.25
2018-07-23T13:08:02.961Z,5.45
2018-07-23T13:10:31.672Z,4.75
2018-07-23T13:13:00.411Z,5.33
2018-07-23T13:15:31.312Z,5.20
2018-07-23T13:18:00.252Z,5.25
2018-07-23T13:20:28.960Z,5.62
2018-07-23T13:22:57.847Z,5.08
2018-07-23T13:25:26.554Z,4.95
2018-07-23T13:27:55.292Z,6.00
2018-07-23T13:30:24.058Z,5.80
2018-07-23T13:32:52.515Z,5.30
2018-07-23T13:35:21.157Z,5.53
2018-07-23T13:37:49.908Z,5.95
2018-07-23T13:40:18.760Z,5.47
2018-07-23T13:42:51.102Z,5.35
2018-07-23T13:45:20.164Z,4.83
2018-07-23T13:47:48.495Z,5.40
2018-07-23T13:50:17.380Z,5.58
2018-07-23T13:52:46.027Z,4.55
2018-07-23T13:55:14.797Z,4.58
2018-07-23T13:57:43.501Z,5.60
2018-07-23T14:00:12.231Z,4.75
2018-07-23T14:02:41.049Z,4.97
2018-07-23T14:05:09.777Z,4.22
2018-07-23T14:07:39.576Z,4.20
2018-07-23T14:10:08.732Z,4.83
2018-07-23T14:12:38.476Z,4.62
2018-07-23T14:15:06.780Z,4.85
2018-07-23T14:17:35.523Z,4.30
2018-07-23T14:20:06.773Z,5.17
2018-07-23T14:22:37.248Z,5.10
2018-07-23T14:25:06.930Z,5.55
2018-07-23T14:27:38.949Z,6.00
2018-07-23T14:30:08.251Z,5.60
2018-07-23T14:32:37.055Z,5.65
2018-07-23T14:35:09.296Z,6.03
2018-07-23T14:37:39.044Z,6.92
2018-07-23T14:40:08.436Z,5.60
2018-07-23T14:42:39.686Z,5.92
2018-07-23T14:45:15.750Z,6.33
2018-07-23T14:47:58.547Z,6.25
2018-07-23T14:50:39.499Z,6.30
2018-07-23T14:53:15.180Z,5.90
2018-07-23T14:55:49.719Z,5.85
2018-07-23T14:58:19.606Z,5.80
2018-07-23T15:00:48.747Z,6.40
2018-07-23T15:03:18.606Z,5.92
2018-07-23T15:06:16.253Z,6.87
2018-07-23T15:08:45.956Z,5.70
2018-07-23T15:11:15.110Z,5.53
2018-07-23T15:13:44.108Z,6.08
2018-07-23T15:16:12.788Z,6.15
2018-07-23T15:18:41.447Z,6.70
2018-07-23T15:21:10.400Z,5.93
2018-07-23T15:23:47.252Z,6.00
2018-07-23T15:26:16.052Z,6.22
2018-07-23T15:28:44.715Z,5.85
2018-07-23T15:31:13.384Z,5.65
2018-07-23T15:33:42.191Z,6.62
2018-07-23T15:36:11.854Z,6.15
2018-07-23T15:38:44.196Z,6.00
2018-07-23T15:41:27.634Z,5.75
2018-07-23T15:43:57.556Z,5.80
2018-07-23T15:46:29.561Z,5.97
2018-07-23T15:49:00.111Z,6.12
2018-07-23T15:51:41.535Z,5.92
2018-07-23T15:54:10.348Z,5.85
2018-07-23T15:56:39.057Z,5.70
2018-07-23T15:59:07.816Z,5.90
2018-07-23T16:01:37.468Z,5.70
2018-07-23T16:04:06.136Z,6.85
2018-07-23T16:06:35.372Z,5.65
2018-07-23T16:09:06.718Z,5.90
2018-07-23T16:11:35.975Z,5.97
2018-07-23T16:14:05.017Z,5.40
2018-07-23T16:16:34.647Z,5.97
2018-07-23T16:19:03.389Z,5.55
2018-07-23T16:21:32.095Z,5.30
2018-07-23T16:24:00.807Z,6.22
2018-07-23T16:26:29.556Z,5.45
2018-07-23T16:28:58.700Z,5.90
2018-07-23T16:31:28.344Z,6.15
2018-07-23T16:33:56.989Z,5.97
2018-07-23T16:36:25.645Z,5.90
2018-07-23T16:38:54.448Z,5.12
2018-07-23T16:41:23.137Z,5.90
2018-07-23T16:43:59.155Z,5.95
2018-07-23T16:46:27.503Z,5.45
2018-07-23T16:48:56.230Z,5.70
2018-07-23T16:51:31.192Z,5.80
2018-07-23T16:54:08.758Z,5.85
2018-07-23T16:56:37.548Z,5.95
2018-07-23T16:59:06.292Z,6.05
2018-07-23T17:01:35.132Z,6.15
2018-07-23T17:04:03.838Z,5.65
2018-07-23T17:06:32.549Z,5.45
2018-07-23T17:09:01.244Z,5.67
2018-07-23T17:11:29.900Z,6.40
2018-07-23T17:13:58.592Z,5.30
2018-07-23T17:16:27.251Z,5.40
2018-07-23T17:18:56.010Z,5.50
2018-07-23T17:21:24.764Z,5.67
2018-07-23T17:23:53.403Z,5.30
2018-07-23T17:26:22.724Z,5.70
2018-07-23T17:28:51.424Z,5.93
2018-07-23T17:31:20.127Z,5.63
2018-07-23T17:33:48.779Z,5.20
2018-07-23T17:36:19.564Z,5.50
2018-07-23T17:39:06.740Z,5.50
2018-07-23T17:41:36.495Z,5.70
2018-07-23T17:44:05.215Z,5.83
2018-07-23T17:46:33.855Z,5.80
2018-07-23T17:49:02.582Z,5.77
2018-07-23T17:51:31.297Z,5.70
2018-07-23T17:53:59.954Z,5.50
2018-07-23T17:56:28.664Z,6.97
2018-07-23T17:58:57.692Z,5.63
2018-07-23T18:01:26.434Z,5.80
2018-07-23T18:03:55.172Z,6.20
2018-07-23T18:06:23.870Z,5.47
2018-07-23T18:08:52.507Z,5.57
2018-07-23T18:11:23.988Z,6.10
2018-07-23T18:13:52.486Z,6.30
2018-07-23T18:16:21.095Z,6.47
2018-07-23T18:18:49.731Z,6.03
2018-07-23T18:21:19.372Z,6.00
2018-07-23T18:23:56.529Z,7.20
2018-07-23T18:26:44.403Z,6.13
2018-07-23T18:29:24.210Z,6.03
2018-07-23T18:32:02.774Z,5.77
2018-07-23T18:34:35.988Z,6.20
2018-07-23T18:37:04.879Z,6.27
2018-07-23T18:39:38.605Z,8.60
2018-07-23T18:44:45.687Z,5.93
2018-07-23T18:47:14.657Z,5.93
2018-07-23T18:50:03.202Z,9.10
2018-07-23T18:52:37.260Z,6.33
2018-07-23T18:55:08.119Z,9.43
2018-07-23T18:57:44.858Z,7.13
2018-07-23T19:00:20.734Z,6.83
2018-07-23T19:02:54.224Z,6.47
2018-07-23T19:05:27.547Z,6.53
2018-07-23T19:07:56.193Z,7.07
2018-07-23T19:10:24.858Z,6.93
2018-07-23T19:12:53.507Z,6.37
2018-07-23T19:15:22.191Z,6.60
2018-07-23T19:17:50.808Z,6.13
2018-07-23T19:20:19.563Z,5.97
2018-07-23T19:22:48.205Z,8.30
2018-07-23T19:25:16.869Z,7.10
2018-07-23T19:27:46.507Z,16.97
2018-07-23T19:30:15.149Z,9.13
2018-07-23T19:32:43.755Z,6.47
2018-07-23T19:35:12.406Z,6.73
2018-07-23T19:37:41.034Z,6.77
2018-07-23T19:40:09.692Z,6.73
2018-07-23T19:42:38.287Z,6.90
2018-07-23T19:45:06.919Z,7.60
2018-07-23T19:47:35.574Z,6.53
2018-07-23T19:50:04.591Z,6.83
2018-07-23T19:52:33.224Z,7.77
2018-07-23T19:55:01.852Z,6.47
2018-07-23T19:57:30.981Z,7.07
2018-07-23T19:59:59.575Z,6.70
2018-07-23T20:02:42.779Z,7.57
2018-07-23T20:05:11.550Z,7.07
2018-07-23T20:07:40.172Z,7.07
2018-07-23T20:10:08.808Z,8.30
2018-07-23T20:12:37.460Z,6.97
2018-07-23T20:15:06.199Z,6.67
2018-07-23T20:17:34.823Z,7.30
2018-07-23T20:20:03.559Z,7.17
2018-07-23T20:22:32.165Z,6.70
2018-07-23T20:25:00.775Z,6.90
2018-07-23T20:27:29.391Z,7.43
2018-07-23T20:29:57.984Z,7.23
2018-07-23T20:32:26.584Z,6.40
2018-07-23T20:34:55.419Z,7.27
2018-07-23T20:37:24.020Z,6.37
2018-07-23T20:39:52.627Z,7.47
2018-07-23T20:42:21.296Z,6.63
2018-07-23T20:44:50.033Z,6.70
2018-07-23T20:47:18.694Z,7.20
2018-07-23T20:49:47.383Z,7.17
2018-07-23T20:52:16.009Z,7.73
2018-07-23T20:54:44.612Z,7.80
2018-07-23T20:57:13.293Z,7.07
2018-07-23T20:59:41.963Z,7.43
2018-07-23T21:02:10.624Z,7.70
2018-07-23T21:04:38.875Z,7.60
2018-07-23T21:07:07.516Z,7.73
2018-07-23T21:09:36.149Z,7.77
2018-07-23T21:12:04.872Z,7.17
2018-07-23T21:14:33.495Z,6.70
2018-07-23T21:17:02.140Z,7.27
2018-07-23T21:19:30.746Z,7.73
2018-07-23T21:21:59.396Z,7.97
2018-07-23T21:24:28.000Z,7.73
2018-07-23T21:26:56.615Z,7.07
2018-07-23T21:29:25.236Z,6.90
2018-07-23T21:31:53.550Z,7.27
2018-07-23T21:34:22.183Z,8.50
2018-07-23T21:36:50.816Z,7.27
2018-07-23T21:39:19.439Z,7.50
2018-07-23T21:41:48.136Z,7.97
2018-07-23T21:44:16.799Z,7.97
2018-07-23T21:46:45.432Z,7.53
2018-07-23T21:49:13.695Z,7.60
2018-07-23T21:51:42.311Z,7.67
2018-07-23T21:54:10.967Z,7.63
2018-07-23T21:56:39.598Z,10.67
2018-07-23T21:59:08.215Z,14.00
2018-07-23T22:01:36.695Z,16.47
2018-07-23T22:04:05.259Z,15.40
2018-07-23T22:06:33.726Z,25.00
2018-07-23T22:09:02.183Z,15.23
2018-07-23T22:11:30.680Z,14.27
2018-07-23T22:13:59.151Z,18.83
2018-07-23T22:16:27.285Z,19.33
2018-07-23T22:18:55.765Z,18.50
2018-07-23T22:21:24.219Z,15.10
2018-07-23T22:23:52.663Z,20.40
2018-07-23T22:26:21.141Z,30.50
2018-07-23T22:28:49.602Z,31.73
2018-07-23T22:31:18.074Z,25.23
2018-07-23T22:33:46.652Z,26.97
2018-07-23T22:36:15.107Z,34.40
2018-07-23T22:38:43.586Z,25.03
2018-07-23T22:41:12.039Z,29.17
2018-07-23T22:43:40.502Z,34.47
2018-07-23T22:46:08.979Z,45.50
2018-07-23T22:48:37.436Z,33.77
2018-07-23T22:51:06.018Z,33.50
2018-07-23T22:53:34.503Z,27.10
2018-07-23T22:56:03.011Z,31.73
2018-07-23T22:58:31.654Z,47.43
2018-07-23T23:01:00.147Z,37.17
2018-07-23T23:03:28.662Z,31.37
2018-07-23T23:05:57.110Z,33.10
2018-07-23T23:08:25.586Z,27.67
2018-07-23T23:10:54.034Z,28.77
2018-07-23T23:13:22.474Z,33.50
2018-07-23T23:15:50.907Z,27.27
2018-07-23T23:18:19.342Z,23.40
2018-07-23T23:20:47.825Z,27.03
2018-07-23T23:23:15.985Z,31.13
2018-07-23T23:25:44.430Z,22.83
2018-07-23T23:28:12.863Z,13.63
2018-07-23T23:30:41.302Z,14.87
2018-07-23T23:33:09.803Z,15.10
2018-07-23T23:35:38.298Z,19.17
2018-07-23T23:38:06.735Z,14.40
2018-07-23T23:40:35.174Z,9.23
2018-07-23T23:43:03.651Z,10.83
2018-07-23T23:45:32.107Z,12.93
2018-07-23T23:48:00.550Z,12.67
2018-07-23T23:50:29.034Z,10.30
2018-07-23T23:52:57.474Z,11.73
2018-07-23T23:55:25.918Z,11.53
2018-07-23T23:57:54.367Z,12.13
